Time;durP1;ratioP1;P1;durP2;ratioP2;P2;SDS_P1;SDS_P2;PMS_P1;PMS_P2;Temp;Humidity;BMP_temperature;BMP_pressure;BME280_temperature;BME280_humidity;BME280_pressure;Samples;Min_cycle;Max_cycle;Signal;HPM_P1;HPM_P2
2022/08/25 00:01:15;;;;;;;2.73;2.20;;;22.30;81.20;;;;;;7382536;19;20443;-46
2022/08/25 00:03:45;;;;;;;3.80;2.63;;;22.30;81.10;;;;;;7382231;19;20380;-46
2022/08/25 00:06:16;;;;;;;2.57;2.30;;;22.20;81.10;;;;;;7374878;19;20465;-46
2022/08/25 00:08:45;;;;;;;2.80;2.60;;;22.10;81.80;;;;;;7357803;19;20360;-46
2022/08/25 00:11:18;;;;;;;2.73;2.30;;;22.20;81.20;;;;;;7363181;19;20447;-46
2022/08/25 00:13:52;;;;;;;3.80;2.50;;;22.30;80.60;;;;;;7372468;19;20379;-46
2022/08/25 00:16:25;;;;;;;3.17;2.87;;;22.30;80.40;;;;;;7349568;19;20850;-46
2022/08/25 00:18:58;;;;;;;2.73;2.13;;;22.20;81.50;;;;;;7375269;19;20376;-44
2022/08/25 00:21:30;;;;;;;2.97;2.60;;;22.20;81.60;;;;;;7378256;19;20906;-46
2022/08/25 00:24:01;;;;;;;3.80;3.23;;;22.20;82.00;;;;;;7370529;19;20392;-45
2022/08/25 00:26:32;;;;;;;2.30;2.10;;;22.10;82.10;;;;;;7361634;19;21336;-45
2022/08/25 00:29:02;;;;;;;3.27;2.53;;;22.10;82.60;;;;;;7373311;19;20382;-45
2022/08/25 00:31:35;;;;;;;2.43;2.23;;;22.00;83.00;;;;;;7382039;19;20407;-45
2022/08/25 00:34:08;;;;;;;2.90;2.50;;;22.00;83.70;;;;;;7377916;19;20379;-45
2022/08/25 00:36:39;;;;;;;2.93;2.33;;;21.90;84.10;;;;;;7376536;19;21110;-45
2022/08/25 00:39:10;;;;;;;2.93;2.50;;;21.90;85.10;;;;;;7377284;19;20902;-46
2022/08/25 00:41:41;;;;;;;2.53;2.23;;;21.80;86.10;;;;;;7373786;19;20392;-46
2022/08/25 00:44:13;;;;;;;3.20;2.90;;;21.70;87.00;;;;;;7376785;19;20904;-46
2022/08/25 00:46:50;;;;;;;2.60;2.20;;;21.60;87.70;;;;;;7375291;19;20375;-47
2022/08/25 00:49:23;;;;;;;5.43;2.70;;;21.60;88.30;;;;;;7373534;19;20391;-46
2022/08/25 00:51:57;;;;;;;3.57;2.60;;;21.40;90.10;;;;;;7366854;19;20729;-45
2022/08/25 00:54:30;;;;;;;3.33;2.80;;;21.40;90.30;;;;;;7374651;19;20384;-45
2022/08/25 00:57:00;;;;;;;3.10;2.80;;;21.40;90.00;;;;;;7358177;19;20433;-46
2022/08/25 00:59:31;;;;;;;3.03;2.70;;;21.50;89.90;;;;;;7365825;19;20887;-46
2022/08/25 01:02:04;;;;;;;3.60;2.60;;;21.60;88.40;;;;;;7368593;19;21192;-46
2022/08/25 01:04:34;;;;;;;2.87;2.57;;;21.90;86.70;;;;;;7373553;19;20390;-46
2022/08/25 01:07:04;;;;;;;2.97;2.50;;;21.90;85.80;;;;;;7375739;19;20799;-46
2022/08/25 01:09:37;;;;;;;3.00;2.47;;;21.80;86.30;;;;;;7374483;19;20773;-46
2022/08/25 01:12:07;;;;;;;7.97;3.03;;;21.40;90.00;;;;;;7379450;19;20387;-46
2022/08/25 01:14:37;;;;;;;4.13;3.00;;;21.30;91.20;;;;;;7356967;19;20451;-46
2022/08/25 01:17:10;;;;;;;3.43;2.70;;;21.20;91.50;;;;;;7371619;19;21139;-46
2022/08/25 01:19:39;;;;;;;5.03;3.27;;;21.20;92.40;;;;;;7377328;19;20368;-45
2022/08/25 01:22:12;;;;;;;3.10;2.80;;;21.10;92.60;;;;;;7371316;19;20372;-45
2022/08/25 01:24:46;;;;;;;3.67;3.10;;;21.10;92.60;;;;;;7377734;19;20379;-45
2022/08/25 01:27:16;;;;;;;3.57;3.00;;;20.90;93.70;;;;;;7372228;19;20442;-44
2022/08/25 01:29:45;;;;;;;4.70;3.10;;;20.70;95.70;;;;;;7360308;19;20380;-46
2022/08/25 01:32:15;;;;;;;4.10;3.70;;;20.60;96.90;;;;;;7364383;19;20380;-45
2022/08/25 01:34:47;;;;;;;5.17;3.20;;;20.60;97.40;;;;;;7372959;19;20708;-45
2022/08/25 01:37:19;;;;;;;4.17;3.57;;;20.40;99.00;;;;;;7372351;19;20392;-45
2022/08/25 01:39:49;;;;;;;3.10;2.80;;;20.50;98.70;;;;;;7374275;19;20376;-45
2022/08/25 01:42:39;;;;;;;6.40;3.37;;;20.60;97.90;;;;;;7371150;19;20373;-45
2022/08/25 01:45:10;;;;;;;3.33;3.00;;;20.80;97.40;;;;;;7355967;19;20376;-45
2022/08/25 01:47:40;;;;;;;4.90;3.87;;;20.70;97.80;;;;;;7364690;19;22241;-45
2022/08/25 01:50:12;;;;;;;4.50;3.23;;;20.70;97.90;;;;;;7374051;19;20380;-45
2022/08/25 01:52:52;;;;;;;3.40;3.10;;;20.70;97.70;;;;;;7374642;19;20727;-45
2022/08/25 01:55:21;;;;;;;4.00;3.37;;;20.90;96.90;;;;;;7374291;19;20397;-45
2022/08/25 01:57:51;;;;;;;4.37;3.37;;;20.90;96.90;;;;;;7373110;19;20375;-45
2022/08/25 02:00:22;;;;;;;4.90;3.63;;;20.70;97.90;;;;;;7360541;19;20469;-45
2022/08/25 02:02:57;;;;;;;3.37;2.93;;;20.40;99.90;;;;;;7362191;19;20459;-45
2022/08/25 02:05:27;;;;;;;4.37;3.50;;;20.60;99.90;;;;;;7377786;19;20987;-45
2022/08/25 02:07:59;;;;;;;7.00;3.50;;;20.70;99.10;;;;;;7376043;19;20376;-45
2022/08/25 02:10:29;;;;;;;4.63;3.50;;;20.60;99.70;;;;;;7383326;19;20484;-46
2022/08/25 02:12:58;;;;;;;5.40;3.60;;;20.80;99.10;;;;;;7380331;19;20368;-45
2022/08/25 02:15:28;;;;;;;4.40;3.57;;;20.90;98.30;;;;;;7370138;19;20387;-46
2022/08/25 02:17:58;;;;;;;4.13;3.80;;;21.00;97.80;;;;;;7365943;19;20806;-46
2022/08/25 02:20:28;;;;;;;3.80;3.40;;;20.90;98.10;;;;;;7377738;19;20376;-45
2022/08/25 02:23:00;;;;;;;4.50;4.10;;;20.60;99.60;;;;;;7381157;19;20406;-45
2022/08/25 02:25:29;;;;;;;3.53;3.20;;;20.50;99.90;;;;;;7375018;19;20408;-45
2022/08/25 02:27:59;;;;;;;4.00;3.60;;;20.40;99.90;;;;;;7384923;19;20482;-46
2022/08/25 02:30:31;;;;;;;4.80;3.97;;;20.60;99.90;;;;;;7359807;19;20577;-46
2022/08/25 02:33:00;;;;;;;4.63;3.40;;;20.80;99.30;;;;;;7363896;19;21193;-46
2022/08/25 02:35:31;;;;;;;4.77;4.37;;;20.80;99.10;;;;;;7380813;19;20883;-46
2022/08/25 02:38:03;;;;;;;4.20;3.80;;;20.50;99.90;;;;;;7376739;19;20379;-45
2022/08/25 02:40:33;;;;;;;5.80;3.77;;;20.10;99.90;;;;;;7382605;19;20388;-45
2022/08/25 02:43:02;;;;;;;7.43;4.23;;;20.20;99.90;;;;;;7379184;19;20768;-45
2022/08/25 02:45:32;;;;;;;4.27;3.20;;;20.30;99.90;;;;;;7367475;19;20372;-46
2022/08/25 02:48:02;;;;;;;6.07;3.60;;;20.20;99.90;;;;;;7363337;19;20401;-45
2022/08/25 02:50:32;;;;;;;5.40;4.10;;;20.00;99.90;;;;;;7378379;19;20372;-46
2022/08/25 02:53:06;;;;;;;6.13;3.80;;;19.90;99.90;;;;;;7378059;19;20376;-46
2022/08/25 02:55:35;;;;;;;4.97;4.03;;;20.00;99.90;;;;;;7378756;19;20372;-46
2022/08/25 02:58:05;;;;;;;7.47;3.87;;;19.70;99.90;;;;;;7380896;19;20834;-46
2022/08/25 03:00:34;;;;;;;5.70;4.40;;;19.80;99.90;;;;;;7372086;19;20995;-46
2022/08/25 03:03:04;;;;;;;4.20;3.77;;;20.00;99.90;;;;;;7363038;19;20965;-47
2022/08/25 03:05:34;;;;;;;4.70;3.87;;;19.80;99.90;;;;;;7371714;19;20388;-47
2022/08/25 03:08:06;;;;;;;4.90;4.07;;;19.60;99.90;;;;;;7380040;19;20918;-47
2022/08/25 03:10:36;;;;;;;4.50;4.07;;;19.70;99.90;;;;;;7375216;19;20416;-47
2022/08/25 03:13:06;;;;;;;5.67;4.83;;;19.70;99.90;;;;;;7376538;19;20383;-47
2022/08/25 03:15:36;;;;;;;5.10;4.20;;;19.80;99.90;;;;;;7366032;19;20360;-47
2022/08/25 03:18:10;;;;;;;5.40;4.30;;;19.80;99.90;;;;;;7369237;19;20903;-47
2022/08/25 03:20:41;;;;;;;6.50;3.80;;;20.00;99.90;;;;;;7379410;19;20384;-47
2022/08/25 03:23:13;;;;;;;5.40;4.33;;;19.90;99.90;;;;;;7378568;19;20757;-47
2022/08/25 03:28:25;;;;;;;5.07;3.77;;;19.80;99.90;;;;;;7379554;19;20505;-47
2022/08/25 03:30:54;;;;;;;4.80;4.23;;;19.70;99.90;;;;;;7371352;19;20376;-47
2022/08/25 03:33:24;;;;;;;5.23;3.70;;;19.80;99.90;;;;;;7362120;19;20665;-47
2022/08/25 03:35:54;;;;;;;6.03;4.23;;;19.60;99.90;;;;;;7372627;19;20987;-47
2022/08/25 03:38:26;;;;;;;3.83;3.43;;;19.70;99.90;;;;;;7375006;19;20380;-46
2022/08/25 03:40:55;;;;;;;5.60;3.90;;;19.50;99.90;;;;;;7380009;19;20409;-46
2022/08/25 03:43:25;;;;;;;5.27;4.17;;;19.50;99.90;;;;;;7378246;19;20368;-47
2022/08/25 03:45:55;;;;;;;6.33;3.63;;;19.70;99.90;;;;;;7357061;19;20437;-47
2022/08/25 03:48:28;;;;;;;4.23;3.57;;;19.70;99.90;;;;;;7368256;19;20414;-48
2022/08/25 03:50:57;;;;;;;4.23;3.83;;;19.80;99.90;;;;;;7379267;19;20384;-48
2022/08/25 03:53:29;;;;;;;5.63;4.70;;;19.90;99.90;;;;;;7379109;19;20416;-47
2022/08/25 03:55:59;;;;;;;6.40;5.57;;;19.80;99.90;;;;;;7376725;19;20414;-47
2022/08/25 03:58:31;;;;;;;5.10;3.90;;;19.40;99.90;;;;;;7377833;19;20414;-45
2022/08/25 04:01:01;;;;;;;4.67;3.80;;;19.10;99.90;;;;;;7372664;19;20439;-44
2022/08/25 04:03:30;;;;;;;7.13;4.33;;;18.90;99.90;;;;;;7379762;19;20885;-46
2022/08/25 04:06:03;;;;;;;5.97;4.50;;;18.90;99.90;;;;;;7378041;19;20783;-46
2022/08/25 04:08:35;;;;;;;4.90;4.20;;;19.20;99.90;;;;;;7381773;19;20418;-47
2022/08/25 04:11:09;;;;;;;5.33;4.30;;;19.30;99.90;;;;;;7374434;19;20375;-47
2022/08/25 04:13:38;;;;;;;5.83;4.67;;;19.30;99.90;;;;;;7382511;19;20418;-46
2022/08/25 04:16:13;;;;;;;4.50;4.10;;;19.40;99.90;;;;;;7381591;19;20372;-46
2022/08/25 04:18:43;;;;;;;6.53;4.87;;;19.20;99.90;;;;;;7379517;19;20981;-47
2022/08/25 04:21:13;;;;;;;6.23;4.60;;;19.00;99.90;;;;;;7377761;19;20922;-46
2022/08/25 04:23:47;;;;;;;6.50;5.10;;;19.10;99.90;;;;;;7381578;19;20373;-46
2022/08/25 04:26:20;;;;;;;5.80;4.67;;;19.30;99.90;;;;;;7365172;19;20385;-47
2022/08/25 04:28:51;;;;;;;9.23;4.80;;;19.40;99.90;;;;;;7378071;19;20383;-47
2022/08/25 04:31:23;;;;;;;5.87;4.77;;;19.60;99.90;;;;;;7379272;19;20859;-48
2022/08/25 04:33:52;;;;;;;5.90;4.40;;;19.20;99.90;;;;;;7378663;19;20778;-45
2022/08/25 04:36:23;;;;;;;6.40;4.63;;;19.30;99.90;;;;;;7370768;19;20368;-46
2022/08/25 04:38:55;;;;;;;7.77;5.57;;;19.20;99.90;;;;;;7378095;19;20498;-46
2022/08/25 04:41:28;;;;;;;6.50;5.10;;;19.30;99.90;;;;;;7378265;19;20372;-46
2022/08/25 04:44:00;;;;;;;5.60;4.93;;;19.20;99.90;;;;;;7382659;19;20376;-46
2022/08/25 04:46:35;;;;;;;6.17;4.80;;;19.20;99.90;;;;;;7369910;19;20376;-47
2022/08/25 04:49:05;;;;;;;9.30;4.87;;;19.00;99.90;;;;;;7370694;19;20406;-46
2022/08/25 04:51:36;;;;;;;7.50;4.97;;;19.10;99.90;;;;;;7370926;19;20455;-47
2022/08/25 04:54:12;;;;;;;6.10;4.47;;;19.50;99.90;;;;;;7376549;19;20421;-47
2022/08/25 04:56:45;;;;;;;5.93;4.27;;;19.70;99.90;;;;;;7374920;19;20364;-47
2022/08/25 04:59:16;;;;;;;9.67;4.60;;;19.90;99.90;;;;;;7375911;19;22111;-47
2022/08/25 05:01:47;;;;;;;6.43;4.50;;;20.00;99.90;;;;;;7372230;19;20551;-47
2022/08/25 05:04:18;;;;;;;6.60;4.87;;;20.00;99.90;;;;;;7365801;19;20396;-46
2022/08/25 05:06:47;;;;;;;6.80;5.10;;;19.80;99.90;;;;;;7375009;19;20422;-47
2022/08/25 05:09:19;;;;;;;7.13;5.00;;;19.80;99.90;;;;;;7368255;19;20496;-47
2022/08/25 05:11:49;;;;;;;10.43;5.27;;;20.00;99.90;;;;;;7367986;19;20407;-46
2022/08/25 05:14:21;;;;;;;4.90;4.40;;;20.10;99.90;;;;;;7368533;19;20764;-47
2022/08/25 05:16:50;;;;;;;6.00;4.77;;;20.30;99.90;;;;;;7379280;19;20376;-48
2022/08/25 05:19:20;;;;;;;6.63;4.30;;;20.50;99.90;;;;;;7380757;19;20380;-47
2022/08/25 05:21:49;;;;;;;5.27;4.20;;;20.40;99.90;;;;;;7378315;19;20372;-47
2022/08/25 05:24:24;;;;;;;4.73;4.17;;;20.40;99.90;;;;;;7377509;19;20368;-47
2022/08/25 05:26:55;;;;;;;6.83;4.73;;;20.60;99.90;;;;;;7377754;19;20382;-47
2022/08/25 05:29:25;;;;;;;5.67;4.80;;;20.70;99.90;;;;;;7383062;19;20383;-47
2022/08/25 05:31:55;;;;;;;7.20;5.20;;;20.70;99.90;;;;;;7378631;19;20380;-46
2022/08/25 05:34:24;;;;;;;5.90;5.30;;;20.60;99.90;;;;;;7381251;19;20480;-46
2022/08/25 05:36:56;;;;;;;5.23;4.53;;;20.20;99.90;;;;;;7384538;19;20378;-46
2022/08/25 05:39:31;;;;;;;6.80;5.13;;;20.10;99.90;;;;;;7385189;19;20376;-45
2022/08/25 05:42:00;;;;;;;6.30;5.33;;;20.30;99.90;;;;;;7387816;19;20474;-46
2022/08/25 05:44:30;;;;;;;7.40;5.10;;;20.30;99.90;;;;;;7388931;19;20409;-46
2022/08/25 05:46:59;;;;;;;7.40;5.10;;;20.40;99.90;;;;;;7387999;19;20519;-46
2022/08/25 05:49:29;;;;;;;6.40;4.90;;;20.20;99.90;;;;;;7381758;19;21350;-45
2022/08/25 05:51:59;;;;;;;5.93;5.27;;;20.10;99.90;;;;;;7374480;19;20910;-46
2022/08/25 05:54:31;;;;;;;5.63;4.70;;;20.00;99.90;;;;;;7387428;19;20383;-46
2022/08/25 05:57:03;;;;;;;6.00;4.60;;;20.00;99.90;;;;;;7386272;19;20379;-47
2022/08/25 05:59:32;;;;;;;5.30;4.50;;;20.20;99.90;;;;;;7389010;19;20368;-45
2022/08/25 06:04:46;;;;;;;7.83;5.13;;;20.80;99.90;;;;;;7389113;19;20396;-47
2022/08/25 06:07:16;;;;;;;6.43;5.00;;;20.90;99.90;;;;;;7380014;19;20906;-47
2022/08/25 06:09:48;;;;;;;6.83;4.67;;;21.00;99.90;;;;;;7385845;19;20430;-47
2022/08/25 06:12:20;;;;;;;10.97;5.23;;;21.10;99.90;;;;;;7382389;19;20386;-47
2022/08/25 06:14:53;;;;;;;9.33;6.17;;;21.20;99.90;;;;;;7376067;19;20428;-48
2022/08/25 06:17:22;;;;;;;6.63;5.03;;;21.30;99.90;;;;;;7383071;19;20380;-47
2022/08/25 06:19:52;;;;;;;7.90;5.73;;;21.30;99.90;;;;;;7380797;19;20383;-47
2022/08/25 06:22:21;;;;;;;8.33;5.80;;;21.30;99.90;;;;;;7386658;19;20451;-47
2022/08/25 06:24:54;;;;;;;6.23;5.17;;;21.50;99.90;;;;;;7384452;19;20419;-47
2022/08/25 06:27:24;;;;;;;7.40;5.80;;;21.60;98.20;;;;;;7383482;19;20365;-47
2022/08/25 06:29:53;;;;;;;7.70;5.73;;;21.80;97.90;;;;;;7387679;19;20376;-47
2022/08/25 06:32:23;;;;;;;6.93;6.13;;;21.90;96.40;;;;;;7386311;19;20406;-47
2022/08/25 06:34:52;;;;;;;7.63;5.90;;;22.10;95.50;;;;;;7384469;19;20898;-47
2022/08/25 06:37:22;;;;;;;8.00;5.50;;;22.20;95.20;;;;;;7385172;19;20376;-47
2022/08/25 06:39:54;;;;;;;7.00;5.93;;;22.30;94.80;;;;;;7378683;19;20372;-47
2022/08/25 06:42:26;;;;;;;6.73;5.67;;;22.40;93.40;;;;;;7386475;19;21060;-47
2022/08/25 06:44:55;;;;;;;8.60;6.33;;;22.60;92.30;;;;;;7386842;19;20925;-47
2022/08/25 06:47:25;;;;;;;8.57;5.90;;;22.90;91.30;;;;;;7383002;19;20392;-47
2022/08/25 06:49:55;;;;;;;6.20;5.37;;;23.00;90.00;;;;;;7386237;19;20369;-48
2022/08/25 06:52:24;;;;;;;11.57;6.10;;;23.20;88.30;;;;;;7382669;19;20929;-47
2022/08/25 06:54:56;;;;;;;8.70;6.30;;;23.40;86.80;;;;;;7386522;19;20936;-47
2022/08/25 06:57:26;;;;;;;13.37;6.00;;;23.60;84.40;;;;;;7379410;19;20376;-47
2022/08/25 06:59:56;;;;;;;8.53;6.03;;;23.80;81.90;;;;;;7384258;19;20379;-47
2022/08/25 07:02:26;;;;;;;10.13;6.60;;;23.90;80.80;;;;;;7383899;19;20388;-47
2022/08/25 07:04:55;;;;;;;7.50;5.07;;;24.00;80.10;;;;;;7375693;19;20972;-48
2022/08/25 07:07:25;;;;;;;10.03;6.13;;;24.10;80.00;;;;;;7379558;19;20377;-47
2022/08/25 07:09:57;;;;;;;8.80;5.97;;;24.20;78.70;;;;;;7378572;19;20732;-47
2022/08/25 07:12:29;;;;;;;6.97;5.20;;;24.50;77.20;;;;;;7381809;19;20367;-48
2022/08/25 07:14:58;;;;;;;6.10;4.80;;;24.60;76.60;;;;;;7383419;19;20395;-47
2022/08/25 07:17:30;;;;;;;8.70;7.00;;;24.80;75.70;;;;;;7380484;19;20392;-48
2022/08/25 07:19:59;;;;;;;6.50;5.67;;;25.00;74.30;;;;;;7379582;19;20913;-48
2022/08/25 07:22:29;;;;;;;6.40;5.20;;;25.10;72.70;;;;;;7378419;19;20437;-47
2022/08/25 07:25:02;;;;;;;5.97;5.37;;;25.30;71.90;;;;;;7380147;19;20412;-48
2022/08/25 07:27:31;;;;;;;9.27;5.50;;;25.50;70.60;;;;;;7378399;19;20753;-48
2022/08/25 07:30:01;;;;;;;6.57;5.50;;;25.60;70.40;;;;;;7386656;19;20401;-48
2022/08/25 07:32:30;;;;;;;6.57;5.73;;;25.70;69.30;;;;;;7385410;19;20852;-48
2022/08/25 07:37:42;;;;;;;7.20;5.43;;;26.10;68.70;;;;;;7386642;19;20389;-48
2022/08/25 07:40:16;;;;;;;7.00;5.00;;;26.20;66.80;;;;;;7384135;19;20383;-47
2022/08/25 07:42:46;;;;;;;9.63;5.70;;;26.30;66.50;;;;;;7384152;19;20741;-47
2022/08/25 07:45:17;;;;;;;4.70;4.13;;;26.50;64.90;;;;;;7382587;19;20356;-47
2022/08/25 07:47:47;;;;;;;7.33;5.07;;;26.60;62.60;;;;;;7382454;19;20372;-47
2022/08/25 07:50:16;;;;;;;6.83;5.53;;;26.70;63.10;;;;;;7384191;19;20398;-47
2022/08/25 07:52:46;;;;;;;5.80;5.00;;;26.70;62.90;;;;;;7381294;19;20479;-47
2022/08/25 07:55:18;;;;;;;7.37;5.00;;;26.70;62.90;;;;;;7383714;19;20385;-47
2022/08/25 07:57:49;;;;;;;7.30;5.40;;;26.80;62.70;;;;;;7381887;19;20918;-47
2022/08/25 08:00:19;;;;;;;7.23;5.47;;;26.90;62.30;;;;;;7383474;19;20421;-45
2022/08/25 08:02:49;;;;;;;6.10;4.87;;;27.00;61.10;;;;;;7385909;19;20407;-46
2022/08/25 08:05:18;;;;;;;7.50;5.50;;;27.10;61.10;;;;;;7378004;19;20455;-46
2022/08/25 08:07:47;;;;;;;7.27;5.60;;;27.20;60.00;;;;;;7380509;19;20382;-47
2022/08/25 08:10:21;;;;;;;7.80;5.83;;;27.20;60.00;;;;;;7380335;19;20380;-49
2022/08/25 08:12:51;;;;;;;5.00;4.50;;;27.30;59.90;;;;;;7381492;19;20384;-47
2022/08/25 08:15:20;;;;;;;5.60;5.10;;;27.40;59.60;;;;;;7381320;19;20883;-47
2022/08/25 08:17:50;;;;;;;8.67;5.63;;;27.60;59.30;;;;;;7384699;19;20744;-47
2022/08/25 08:20:19;;;;;;;5.90;4.70;;;27.80;58.40;;;;;;7367999;19;20372;-47
2022/08/25 08:22:49;;;;;;;6.47;4.80;;;27.90;58.40;;;;;;7373930;19;20405;-47
2022/08/25 08:25:21;;;;;;;5.90;4.30;;;28.10;57.60;;;;;;7383032;19;20772;-47
2022/08/25 08:27:50;;;;;;;6.90;5.03;;;28.30;57.30;;;;;;7381067;19;20405;-48
2022/08/25 08:30:20;;;;;;;5.10;4.60;;;28.40;56.50;;;;;;7380258;19;20376;-48
2022/08/25 08:32:50;;;;;;;6.33;4.97;;;28.30;56.70;;;;;;7376508;19;20367;-48
2022/08/25 08:35:20;;;;;;;5.10;4.60;;;28.50;56.10;;;;;;7383310;19;20375;-47
2022/08/25 08:37:49;;;;;;;4.73;4.10;;;28.40;56.50;;;;;;7383431;19;20376;-48
2022/08/25 08:40:22;;;;;;;5.23;4.73;;;28.70;55.90;;;;;;7383840;19;20898;-47
2022/08/25 08:43:02;;;;;;;5.00;4.33;;;28.60;56.00;;;;;;7382936;19;20377;-48
2022/08/25 08:45:35;;;;;;;5.80;4.40;;;28.60;55.50;;;;;;7384938;19;20372;-48
2022/08/25 08:48:30;;;;;;;4.93;4.53;;;28.90;55.40;;;;;;7377068;19;20921;-48
2022/08/25 08:51:08;;;;;;;5.20;4.70;;;29.40;54.50;;;;;;7377699;19;20376;-48
2022/08/25 08:53:45;;;;;;;5.47;4.90;;;29.50;54.10;;;;;;7379918;19;20405;-48
2022/08/25 08:56:20;;;;;;;4.63;4.00;;;29.90;53.00;;;;;;7382321;19;20388;-48
2022/08/25 08:58:54;;;;;;;5.37;4.87;;;30.20;52.10;;;;;;7379344;19;20375;-47
2022/08/25 09:01:28;;;;;;;4.77;4.10;;;30.20;51.90;;;;;;7378488;19;20424;-47
2022/08/25 09:04:04;;;;;;;5.20;4.43;;;30.30;51.90;;;;;;7381498;19;20468;-48
2022/08/25 09:06:39;;;;;;;5.10;4.23;;;30.50;50.90;;;;;;7381124;19;20443;-48
2022/08/25 09:09:16;;;;;;;4.33;3.93;;;30.80;51.00;;;;;;7375691;19;21153;-47
2022/08/25 09:11:58;;;;;;;4.70;4.20;;;31.30;50.00;;;;;;7364516;19;20383;-49
2022/08/25 09:14:42;;;;;;;5.83;5.00;;;31.50;49.40;;;;;;7378400;19;20379;-48
2022/08/25 09:17:21;;;;;;;7.10;4.70;;;31.80;48.80;;;;;;7376245;19;20838;-49
2022/08/25 09:20:13;;;;;;;7.03;4.50;;;32.30;47.30;;;;;;7372378;19;20368;-49
2022/08/25 09:22:54;;;;;;;4.10;3.70;;;32.60;46.60;;;;;;7378612;19;20381;-49
2022/08/25 09:25:34;;;;;;;5.27;4.77;;;32.90;45.80;;;;;;7370425;19;20367;-49
2022/08/25 09:28:09;;;;;;;5.33;4.73;;;33.30;45.00;;;;;;7378058;19;20400;-49
2022/08/25 09:30:46;;;;;;;5.73;4.07;;;33.50;45.10;;;;;;7372899;19;20379;-49
2022/08/25 09:33:20;;;;;;;4.77;4.00;;;33.80;44.00;;;;;;7369771;19;20379;-49
2022/08/25 09:35:52;;;;;;;4.97;4.37;;;33.50;43.90;;;;;;7377740;19;20376;-49
2022/08/25 09:38:22;;;;;;;4.97;4.47;;;33.90;43.20;;;;;;7372894;19;20400;-49
2022/08/25 09:40:58;;;;;;;4.60;4.20;;;33.60;43.50;;;;;;7376307;19;20375;-48
2022/08/25 09:43:37;;;;;;;4.73;4.23;;;33.90;43.10;;;;;;7378698;19;20917;-49
2022/08/25 09:46:13;;;;;;;4.90;4.03;;;34.60;41.80;;;;;;7373660;19;20464;-48
2022/08/25 09:48:48;;;;;;;4.13;3.73;;;35.20;41.30;;;;;;7379813;19;20419;-48
2022/08/25 09:51:25;;;;;;;4.93;4.40;;;35.40;40.20;;;;;;7378378;19;20951;-49
2022/08/25 09:53:57;;;;;;;6.80;3.97;;;34.90;41.10;;;;;;7379375;19;20411;-48
2022/08/25 09:56:32;;;;;;;4.50;4.10;;;35.10;41.20;;;;;;7378297;19;20407;-49
2022/08/25 09:59:23;;;;;;;4.40;3.90;;;35.60;40.60;;;;;;7366962;19;20400;-48
2022/08/25 10:01:54;;;;;;;4.97;4.50;;;36.20;39.60;;;;;;7377487;19;20424;-49
2022/08/25 10:04:28;;;;;;;4.30;3.90;;;36.50;38.70;;;;;;7380027;19;20413;-49
2022/08/25 10:06:58;;;;;;;5.33;4.50;;;36.90;38.50;;;;;;7369997;19;20379;-48
2022/08/25 10:09:34;;;;;;;4.23;3.83;;;37.40;37.10;;;;;;7377075;19;20478;-48
2022/08/25 10:12:17;;;;;;;4.40;4.00;;;37.60;36.90;;;;;;7375509;19;21005;-48
2022/08/25 10:14:54;;;;;;;4.57;4.17;;;38.10;36.90;;;;;;7376567;19;20922;-48
2022/08/25 10:17:27;;;;;;;5.10;4.53;;;37.70;36.00;;;;;;7375804;19;20396;-49
2022/08/25 10:20:15;;;;;;;5.20;4.37;;;37.20;36.20;;;;;;7379679;19;20911;-49
2022/08/25 10:22:46;;;;;;;3.93;3.63;;;37.20;36.30;;;;;;7378583;19;20376;-49
2022/08/25 10:25:25;;;;;;;4.10;3.70;;;36.90;37.00;;;;;;7386472;19;20437;-48
2022/08/25 10:28:06;;;;;;;4.17;3.77;;;38.10;35.90;;;;;;7382231;19;20411;-51
2022/08/25 10:30:53;;;;;;;4.27;3.93;;;39.10;34.20;;;;;;7376679;19;20376;-49
2022/08/25 10:33:33;;;;;;;4.20;3.77;;;39.60;32.80;;;;;;7381453;19;20956;-49
2022/08/25 10:36:08;;;;;;;3.87;3.57;;;39.30;32.70;;;;;;7376035;19;20379;-49
2022/08/25 10:38:43;;;;;;;4.47;4.07;;;39.40;33.00;;;;;;7378519;19;20363;-49
2022/08/25 10:41:31;;;;;;;3.83;3.53;;;40.50;32.10;;;;;;7377552;19;20428;-49
2022/08/25 10:47:24;;;;;;;5.90;5.10;;;41.40;30.50;;;;;;7386997;19;20377;-50
2022/08/25 10:49:57;;;;;;;4.40;4.00;;;40.90;30.80;;;;;;7386841;19;20415;-48
2022/08/25 10:52:34;;;;;;;5.27;3.80;;;41.20;30.10;;;;;;7385108;19;20372;-49
2022/08/25 10:55:14;;;;;;;5.90;3.83;;;41.10;31.20;;;;;;7382393;19;20706;-49
2022/08/25 10:57:53;;;;;;;5.13;4.73;;;41.70;30.00;;;;;;7380868;19;20368;-49
2022/08/25 11:00:36;;;;;;;4.40;4.00;;;42.30;29.60;;;;;;7377015;19;20787;-49
2022/08/25 11:03:31;;;;;;;6.97;4.90;;;42.50;29.10;;;;;;7381066;19;20372;-49
2022/08/25 11:06:05;;;;;;;4.30;3.90;;;41.60;29.50;;;;;;7377662;19;20396;-49
2022/08/25 11:08:41;;;;;;;6.70;6.00;;;40.80;30.90;;;;;;7379833;19;20432;-49
2022/08/25 11:11:23;;;;;;;4.20;3.90;;;41.70;30.00;;;;;;7377348;19;20409;-49
2022/08/25 11:13:57;;;;;;;4.60;4.20;;;43.00;29.00;;;;;;7383018;19;20372;-47
2022/08/25 11:16:36;;;;;;;3.07;2.87;;;44.10;27.80;;;;;;7380667;19;20369;-50
2022/08/25 11:19:17;;;;;;;5.27;3.40;;;44.40;27.10;;;;;;7382639;19;20706;-49
2022/08/25 11:21:53;;;;;;;3.33;3.03;;;43.50;27.40;;;;;;7385695;19;20910;-50
2022/08/25 11:24:36;;;;;;;3.63;3.33;;;43.30;27.60;;;;;;7382593;19;21566;-49
2022/08/25 11:27:15;;;;;;;5.50;3.20;;;43.40;27.40;;;;;;7379442;19;20384;-49
2022/08/25 11:29:52;;;;;;;4.47;3.43;;;43.90;27.40;;;;;;7383943;19;20379;-47
2022/08/25 11:32:25;;;;;;;3.40;3.20;;;44.40;27.00;;;;;;7383597;19;20384;-46
2022/08/25 11:34:57;;;;;;;3.60;3.30;;;44.70;26.60;;;;;;7379513;19;20925;-49
2022/08/25 11:37:32;;;;;;;3.40;3.10;;;44.30;26.50;;;;;;7384153;19;20394;-50
2022/08/25 11:40:24;;;;;;;3.73;3.23;;;43.90;27.00;;;;;;7376082;19;20426;-49
2022/08/25 11:43:15;;;;;;;3.43;3.13;;;44.00;27.10;;;;;;7381186;19;20420;-47
2022/08/25 11:46:03;;;;;;;2.93;2.73;;;45.00;26.30;;;;;;7384237;19;20368;-47
2022/08/25 11:48:43;;;;;;;3.43;2.77;;;44.50;25.90;;;;;;7376133;19;20443;-48
2022/08/25 11:51:31;;;;;;;3.87;2.70;;;43.10;27.10;;;;;;7381990;19;20473;-48
2022/08/25 11:54:23;;;;;;;3.87;2.80;;;42.70;26.90;;;;;;7383831;19;20383;-48
2022/08/25 11:57:00;;;;;;;2.63;2.43;;;42.30;27.10;;;;;;7380547;19;22340;-48
2022/08/25 12:00:02;;;;;;;3.00;2.80;;;42.30;27.70;;;;;;7381609;19;20372;-49
2022/08/25 12:02:39;;;;;;;2.80;2.60;;;43.40;26.90;;;;;;7379495;19;20401;-48
2022/08/25 12:05:12;;;;;;;2.80;2.60;;;42.10;27.90;;;;;;7374486;19;20399;-49
2022/08/25 12:10:58;;;;;;;3.07;2.77;;;41.20;28.20;;;;;;7379215;19;20368;-48
2022/08/25 12:13:42;;;;;;;3.70;3.00;;;41.80;28.00;;;;;;7380853;19;20372;-49
2022/08/25 12:16:38;;;;;;;4.00;2.80;;;42.10;27.60;;;;;;7381923;19;20475;-49
2022/08/25 12:19:27;;;;;;;4.33;3.10;;;42.10;27.80;;;;;;7381515;19;20663;-49
2022/08/25 12:22:20;;;;;;;2.80;2.60;;;40.80;28.80;;;;;;7380497;19;20372;-47
2022/08/25 12:24:57;;;;;;;3.20;2.90;;;40.60;29.30;;;;;;7378624;19;20414;-48
2022/08/25 12:27:34;;;;;;;2.70;2.50;;;42.10;28.50;;;;;;7379856;19;20390;-49
2022/08/25 12:30:12;;;;;;;3.40;3.10;;;43.90;26.90;;;;;;7381440;19;20387;-49
2022/08/25 12:32:56;;;;;;;3.90;3.13;;;44.10;26.60;;;;;;7384050;19;20802;-49
2022/08/25 12:35:30;;;;;;;3.50;3.20;;;44.30;26.00;;;;;;7379858;19;20423;-48
2022/08/25 12:38:09;;;;;;;3.93;3.07;;;43.50;26.70;;;;;;7378582;19;20375;-48
2022/08/25 12:41:03;;;;;;;5.03;2.93;;;42.50;27.90;;;;;;7377210;19;20379;-48
2022/08/25 12:43:38;;;;;;;3.20;2.90;;;42.30;28.40;;;;;;7380568;19;20943;-48
2022/08/25 12:46:36;;;;;;;3.53;3.23;;;42.70;28.30;;;;;;7378448;19;20384;-49
2022/08/25 12:49:14;;;;;;;4.13;3.00;;;43.00;27.30;;;;;;7380037;19;20418;-49
2022/08/25 12:51:55;;;;;;;3.33;2.40;;;44.10;26.60;;;;;;7379068;19;20408;-48
2022/08/25 12:54:33;;;;;;;2.40;2.20;;;43.50;26.00;;;;;;7383986;19;20376;-48
2022/08/25 12:57:17;;;;;;;2.87;2.60;;;43.90;25.60;;;;;;7381344;19;20752;-49
2022/08/25 12:59:52;;;;;;;2.80;2.60;;;43.10;26.50;;;;;;7371282;19;20384;-49
2022/08/25 13:02:54;;;;;;;2.97;2.67;;;41.40;28.10;;;;;;7381551;19;20761;-48
2022/08/25 13:05:57;;;;;;;2.67;2.47;;;40.50;28.80;;;;;;7371259;19;20929;-48
2022/08/25 13:08:56;;;;;;;2.90;2.70;;;39.60;29.40;;;;;;7375266;19;20379;-48
2022/08/25 13:11:35;;;;;;;2.70;2.50;;;39.00;30.20;;;;;;7370047;19;20410;-48
2022/08/25 13:14:18;;;;;;;3.17;2.90;;;39.30;29.80;;;;;;7370573;19;20368;-48
2022/08/25 13:16:56;;;;;;;2.80;2.60;;;38.70;30.20;;;;;;7333707;19;20418;-48
2022/08/25 13:19:27;;;;;;;3.20;2.87;;;38.00;31.20;;;;;;7377917;19;20388;-48
2022/08/25 13:22:01;;;;;;;3.00;2.57;;;37.50;32.20;;;;;;7377217;19;20930;-48
2022/08/25 13:24:35;;;;;;;3.97;3.13;;;37.70;31.70;;;;;;7374723;19;20738;-48
2022/08/25 13:27:08;;;;;;;2.53;2.33;;;38.20;30.90;;;;;;7374947;19;20417;-48
2022/08/25 13:29:52;;;;;;;2.83;2.63;;;37.70;32.10;;;;;;7368836;19;20384;-48
2022/08/25 13:32:29;;;;;;;5.00;3.10;;;36.60;32.70;;;;;;7373151;19;20468;-48
2022/08/25 13:35:13;;;;;;;7.43;3.53;;;36.30;34.70;;;;;;7377865;19;20952;-48